createdAt,value
2018-06-28T05:01:53.131Z,4.80
2018-06-28T05:06:56.469Z,5.53
2018-06-28T05:11:59.803Z,5.80
2018-06-28T05:17:04.173Z,5.00
2018-06-28T05:22:07.506Z,5.33
2018-06-28T05:27:10.838Z,6.67
2018-06-28T05:32:14.168Z,5.87
2018-06-28T05:37:17.507Z,5.07
2018-06-28T05:42:21.612Z,4.57
2018-06-28T05:47:24.946Z,6.17
2018-06-28T05:52:29.035Z,5.37
2018-06-28T05:57:32.357Z,5.70
2018-06-28T06:02:35.686Z,8.93
2018-06-28T06:07:39.051Z,5.97
2018-06-28T06:12:42.417Z,6.30
2018-06-28T06:17:45.757Z,8.00
2018-06-28T06:22:49.087Z,7.23
2018-06-28T06:27:52.427Z,7.40
2018-06-28T06:32:55.878Z,7.83
2018-06-28T06:37:59.963Z,8.20
2018-06-28T06:43:03.391Z,7.63
2018-06-28T06:48:06.725Z,7.70
2018-06-28T06:53:10.057Z,6.77
2018-06-28T06:58:14.147Z,6.67
2018-06-28T07:03:17.479Z,8.40
2018-06-28T07:08:20.812Z,7.00
2018-06-28T07:13:24.913Z,8.60
2018-06-28T07:18:28.243Z,8.03
2018-06-28T07:23:32.342Z,8.37
2018-06-28T07:28:35.698Z,9.00
2018-06-28T07:33:39.033Z,8.80
2018-06-28T07:38:42.363Z,8.67
2018-06-28T07:43:45.690Z,8.93
2018-06-28T07:48:49.019Z,6.80
2018-06-28T07:53:52.357Z,7.13
2018-06-28T07:58:56.450Z,7.03
2018-06-28T08:03:59.779Z,8.03
2018-06-28T08:09:04.801Z,9.13
2018-06-28T08:14:12.081Z,7.33
2018-06-28T08:19:15.406Z,8.70
2018-06-28T08:24:18.739Z,8.47
2018-06-28T08:29:22.058Z,7.73
2018-06-28T08:34:25.403Z,9.00
2018-06-28T08:39:29.496Z,7.10
2018-06-28T08:44:32.826Z,9.93
2018-06-28T08:49:36.162Z,8.40
2018-06-28T08:54:40.259Z,8.57
2018-06-28T08:59:43.599Z,10.00
2018-06-28T09:04:46.928Z,10.50
2018-06-28T09:09:51.023Z,10.53
2018-06-28T09:14:54.353Z,8.80
2018-06-28T09:19:57.688Z,10.47
2018-06-28T09:25:01.787Z,10.93
2018-06-28T09:30:05.124Z,10.13
2018-06-28T09:35:09.226Z,12.00
2018-06-28T09:40:12.566Z,12.03
2018-06-28T09:45:16.707Z,12.70
2018-06-28T09:50:20.764Z,12.27
2018-06-28T09:55:24.095Z,12.77
2018-06-28T10:00:27.488Z,13.47
2018-06-28T10:05:30.791Z,14.63
2018-06-28T10:10:34.124Z,14.53
2018-06-28T10:15:37.455Z,16.00
2018-06-28T10:20:40.800Z,17.53
2018-06-28T10:25:44.903Z,16.40
2018-06-28T10:30:48.257Z,13.40
2018-06-28T10:35:51.587Z,16.97
2018-06-28T10:40:54.945Z,17.90
2018-06-28T10:45:58.285Z,19.70
2018-06-28T10:51:02.382Z,21.60
2018-06-28T10:56:05.723Z,18.77
2018-06-28T11:01:09.818Z,17.90
2018-06-28T11:06:13.146Z,18.17
2018-06-28T11:11:16.495Z,18.60
2018-06-28T11:16:19.830Z,18.30
2018-06-28T11:21:23.160Z,19.03
2018-06-28T11:26:26.495Z,16.13
2018-06-28T11:31:29.840Z,15.00
2018-06-28T11:36:33.944Z,13.97
2018-06-28T11:41:37.289Z,16.43
2018-06-28T11:46:40.620Z,15.50
2018-06-28T11:51:43.957Z,15.77
2018-06-28T11:56:47.298Z,14.87
2018-06-28T12:01:50.641Z,15.43
2018-06-28T12:06:53.979Z,15.97
2018-06-28T12:11:57.316Z,15.53
2018-06-28T12:17:00.646Z,18.00
2018-06-28T12:22:03.983Z,15.63
2018-06-28T12:27:07.327Z,16.80
2018-06-28T12:32:10.658Z,13.63
2018-06-28T12:37:13.991Z,14.50
2018-06-28T12:42:17.331Z,14.90
2018-06-28T12:47:38.267Z,14.50
2018-06-28T12:52:41.599Z,15.77
2018-06-28T12:57:44.925Z,18.93
2018-06-28T13:02:48.269Z,18.33
2018-06-28T13:07:51.606Z,19.07
2018-06-28T13:12:55.717Z,20.73
2018-06-28T13:17:59.065Z,22.53
2018-06-28T13:23:02.398Z,23.13
2018-06-28T13:28:05.732Z,24.80
2018-06-28T13:33:09.080Z,25.00
2018-06-28T13:38:13.196Z,22.90
2018-06-28T13:43:16.531Z,26.07
2018-06-28T13:48:20.629Z,28.63
2018-06-28T13:53:23.962Z,27.73
2018-06-28T13:58:28.065Z,28.77
2018-06-28T14:03:31.495Z,27.73
2018-06-28T14:08:34.766Z,24.57
2018-06-28T14:13:38.102Z,27.20
2018-06-28T14:18:41.465Z,24.87
2018-06-28T14:23:45.571Z,26.93
2018-06-28T14:28:48.909Z,25.87
2018-06-28T14:33:52.247Z,23.77
2018-06-28T14:38:55.587Z,25.33
2018-06-28T14:43:59.018Z,19.93
2018-06-28T14:49:02.376Z,25.77
2018-06-28T14:54:05.740Z,23.37
2018-06-28T14:59:09.091Z,19.03
2018-06-28T15:04:12.445Z,10.83
2018-06-28T15:09:15.773Z,12.87
2018-06-28T15:14:19.151Z,11.63
2018-06-28T15:19:25.772Z,9.63
2018-06-28T15:24:29.117Z,10.73
2018-06-28T15:29:33.211Z,12.03
2018-06-28T15:34:36.538Z,10.57
2018-06-28T15:39:39.874Z,13.17
2018-06-28T15:44:43.982Z,13.27
2018-06-28T15:49:47.329Z,14.20
2018-06-28T15:54:50.674Z,14.37
2018-06-28T16:00:09.295Z,13.20
2018-06-28T16:05:13.412Z,12.37
2018-06-28T16:15:52.096Z,12.30
2018-06-28T16:20:56.191Z,12.10
2018-06-28T16:25:59.527Z,11.77
2018-06-28T16:31:02.969Z,12.20
2018-06-28T16:36:07.234Z,10.27
2018-06-28T16:41:12.190Z,12.87
2018-06-28T16:46:15.565Z,12.47
2018-06-28T16:51:19.791Z,12.87
2018-06-28T16:56:23.135Z,12.50
2018-06-28T17:01:26.470Z,11.40
2018-06-28T17:06:29.830Z,12.57
2018-06-28T17:11:33.183Z,12.67
2018-06-28T17:16:36.547Z,12.57
2018-06-28T17:21:39.901Z,12.20
2018-06-28T17:26:43.267Z,12.80
2018-06-28T17:31:46.618Z,13.57
2018-06-28T17:36:49.964Z,15.00
2018-06-28T17:41:53.296Z,14.27
2018-06-28T17:46:56.631Z,14.80
2018-06-28T17:52:00.727Z,14.13
2018-06-28T17:57:04.080Z,15.20
2018-06-28T18:02:08.179Z,14.83
2018-06-28T18:07:11.510Z,16.60
2018-06-28T18:12:14.849Z,14.83
2018-06-28T18:17:18.189Z,15.80
2018-06-28T18:22:21.523Z,12.93
2018-06-28T18:27:24.861Z,11.80
2018-06-28T18:32:28.192Z,13.27
2018-06-28T18:37:32.292Z,12.83
2018-06-28T18:42:35.630Z,12.60
2018-06-28T18:47:39.727Z,12.37
2018-06-28T18:52:43.065Z,13.43
2018-06-28T18:57:47.162Z,14.17
2018-06-28T19:02:50.507Z,12.70
2018-06-28T19:07:54.608Z,13.00
2018-06-28T19:12:57.943Z,13.43
2018-06-28T19:18:01.281Z,11.07
2018-06-28T19:28:33.343Z,16.15
2018-06-28T19:33:36.684Z,11.23
2018-06-28T19:38:40.020Z,11.07
2018-06-28T19:43:44.139Z,12.13
2018-06-28T19:48:48.234Z,12.70
2018-06-28T19:53:51.574Z,13.13
2018-06-28T19:58:54.923Z,13.77
2018-06-28T20:04:12.858Z,13.13
2018-06-28T20:09:16.977Z,15.00
2018-06-28T20:19:55.343Z,18.85
2018-06-28T20:24:58.680Z,14.00
2018-06-28T20:35:31.399Z,21.40
2018-06-28T20:40:39.810Z,14.97
2018-06-28T20:45:43.150Z,13.73
2018-06-28T20:50:47.265Z,15.03
2018-06-28T20:55:50.716Z,16.73
2018-06-28T21:00:54.055Z,14.00
2018-06-28T21:05:57.384Z,17.43
2018-06-28T21:11:00.727Z,16.47
2018-06-28T21:16:04.062Z,15.40
2018-06-28T21:21:08.219Z,16.27
2018-06-28T21:26:11.507Z,15.60
2018-06-28T21:31:15.609Z,16.47
2018-06-28T21:36:18.960Z,16.17
2018-06-28T21:41:22.297Z,15.13
2018-06-28T21:46:25.649Z,17.20
2018-06-28T21:51:28.994Z,19.10
2018-06-28T21:56:32.355Z,18.43
2018-06-28T22:01:35.690Z,22.20
2018-06-28T22:06:39.789Z,17.67
2018-06-28T22:11:43.126Z,17.57
2018-06-28T22:16:46.467Z,21.20
2018-06-28T22:21:50.567Z,24.73
2018-06-28T22:26:53.900Z,24.07
